sensor_id;sensor_type;location;lat;lon;timestamp;pressure;altitude;pressure_sealevel;temperature
65316;BMP280;51920;53.952;10.292;2022-08-21T00:01:45;101219.34;;;14.05
65316;BMP280;51920;53.952;10.292;2022-08-21T00:04:11;101220.50;;;14.07
65316;BMP280;51920;53.952;10.292;2022-08-21T00:06:37;101214.66;;;14.09
65316;BMP280;51920;53.952;10.292;2022-08-21T00:09:05;101213.47;;;14.10
65316;BMP280;51920;53.952;10.292;2022-08-21T00:11:31;101214.28;;;14.07
65316;BMP280;51920;53.952;10.292;2022-08-21T00:13:57;101218.91;;;14.06
65316;BMP280;51920;53.952;10.292;2022-08-21T00:16:22;101192.47;;;14.00
65316;BMP280;51920;53.952;10.292;2022-08-21T00:18:48;101206.09;;;14.14
65316;BMP280;51920;53.952;10.292;2022-08-21T00:21:14;101206.09;;;14.14
65316;BMP280;51920;53.952;10.292;2022-08-21T00:23:39;101204.13;;;14.14
65316;BMP280;51920;53.952;10.292;2022-08-21T00:26:05;101207.25;;;14.13
65316;BMP280;51920;53.952;10.292;2022-08-21T00:28:31;101202.59;;;14.03
65316;BMP280;51920;53.952;10.292;2022-08-21T00:30:57;101201.84;;;13.91
65316;BMP280;51920;53.952;10.292;2022-08-21T00:33:23;101198.34;;;13.87
65316;BMP280;51920;53.952;10.292;2022-08-21T00:35:49;101189.78;;;13.82
65316;BMP280;51920;53.952;10.292;2022-08-21T00:38:14;101191.72;;;13.78
65316;BMP280;51920;53.952;10.292;2022-08-21T00:43:07;101201.09;;;13.73
65316;BMP280;51920;53.952;10.292;2022-08-21T00:45:33;101203.00;;;13.72
65316;BMP280;51920;53.952;10.292;2022-08-21T00:47:59;101198.38;;;13.66
65316;BMP280;51920;53.952;10.292;2022-08-21T00:50:28;101196.41;;;13.63
65316;BMP280;51920;53.952;10.292;2022-08-21T00:52:55;101196.00;;;13.57
65316;BMP280;51920;53.952;10.292;2022-08-21T00:55:22;101203.38;;;13.53
65316;BMP280;51920;53.952;10.292;2022-08-21T00:57:51;101200.25;;;13.54
65316;BMP280;51920;53.952;10.292;2022-08-21T01:00:22;101207.69;;;13.54
65316;BMP280;51920;53.952;10.292;2022-08-21T01:02:48;101207.66;;;13.50
65316;BMP280;51920;53.952;10.292;2022-08-21T01:05:13;101199.13;;;13.41
65316;BMP280;51920;53.952;10.292;2022-08-21T01:07:40;101195.59;;;13.41
65316;BMP280;51920;53.952;10.292;2022-08-21T01:10:07;101209.22;;;13.41
65316;BMP280;51920;53.952;10.292;2022-08-21T01:12:34;101214.25;;;13.42
65316;BMP280;51920;53.952;10.292;2022-08-21T01:15:04;101210.00;;;13.34
65316;BMP280;51920;53.952;10.292;2022-08-21T01:17:30;101209.56;;;13.25
65316;BMP280;51920;53.952;10.292;2022-08-21T01:20:03;101203.34;;;13.21
65316;BMP280;51920;53.952;10.292;2022-08-21T01:22:29;101208.78;;;13.14
65316;BMP280;51920;53.952;10.292;2022-08-21T01:24:54;101208.78;;;13.14
65316;BMP280;51920;53.952;10.292;2022-08-21T01:27:20;101208.00;;;13.17
65316;BMP280;51920;53.952;10.292;2022-08-21T01:29:58;101209.53;;;13.18
65316;BMP280;51920;53.952;10.292;2022-08-21T01:32:25;101208.00;;;13.13
65316;BMP280;51920;53.952;10.292;2022-08-21T01:34:52;101211.09;;;13.12
65316;BMP280;51920;53.952;10.292;2022-08-21T01:37:18;101208.34;;;13.04
65316;BMP280;51920;53.952;10.292;2022-08-21T01:39:44;101209.13;;;13.01
65316;BMP280;51920;53.952;10.292;2022-08-21T01:42:10;101204.44;;;12.98
65316;BMP280;51920;53.952;10.292;2022-08-21T01:44:36;101216.47;;;12.97
65316;BMP280;51920;53.952;10.292;2022-08-21T01:47:06;101205.97;;;12.96
65316;BMP280;51920;53.952;10.292;2022-08-21T01:49:33;101219.22;;;13.01
65316;BMP280;51920;53.952;10.292;2022-08-21T01:51:58;101197.81;;;12.92
65316;BMP280;51920;53.952;10.292;2022-08-21T01:54:24;101203.22;;;12.85
65316;BMP280;51920;53.952;10.292;2022-08-21T01:56:51;101207.09;;;12.84
65316;BMP280;51920;53.952;10.292;2022-08-21T01:59:18;101198.53;;;12.82
65316;BMP280;51920;53.952;10.292;2022-08-21T02:01:44;101198.53;;;12.78
65316;BMP280;51920;53.952;10.292;2022-08-21T02:04:09;101185.69;;;12.72
65316;BMP280;51920;53.952;10.292;2022-08-21T02:06:36;101198.50;;;12.75
65316;BMP280;51920;53.952;10.292;2022-08-21T02:09:06;101188.88;;;12.88
65316;BMP280;51920;53.952;10.292;2022-08-21T02:11:33;101186.16;;;12.88
65316;BMP280;51920;53.952;10.292;2022-08-21T02:13:58;101195.47;;;12.91
65316;BMP280;51920;53.952;10.292;2022-08-21T02:16:24;101204.78;;;12.86
65316;BMP280;51920;53.952;10.292;2022-08-21T02:18:49;101205.19;;;12.81
65316;BMP280;51920;53.952;10.292;2022-08-21T02:21:15;101203.19;;;12.74
65316;BMP280;51920;53.952;10.292;2022-08-21T02:23:40;101208.59;;;12.71
65316;BMP280;51920;53.952;10.292;2022-08-21T02:26:07;101204.31;;;12.70
65316;BMP280;51920;53.952;10.292;2022-08-21T02:28:34;101202.00;;;12.72
65316;BMP280;51920;53.952;10.292;2022-08-21T02:31:01;101211.72;;;12.73
65316;BMP280;51920;53.952;10.292;2022-08-21T02:33:27;101208.59;;;12.71
65316;BMP280;51920;53.952;10.292;2022-08-21T02:35:53;101205.47;;;12.65
65316;BMP280;51920;53.952;10.292;2022-08-21T02:38:23;101203.50;;;12.62
65316;BMP280;51920;53.952;10.292;2022-08-21T02:40:50;101202.34;;;12.59
65316;BMP280;51920;53.952;10.292;2022-08-21T02:43:17;101212.41;;;12.55
65316;BMP280;51920;53.952;10.292;2022-08-21T02:45:43;101208.13;;;12.51
65316;BMP280;51920;53.952;10.292;2022-08-21T02:48:11;101204.25;;;12.55
65316;BMP280;51920;53.952;10.292;2022-08-21T02:50:41;101203.13;;;12.60
65316;BMP280;51920;53.952;10.292;2022-08-21T02:53:08;101201.94;;;12.57
65316;BMP280;51920;53.952;10.292;2022-08-21T02:55:36;101204.59;;;12.50
65316;BMP280;51920;53.952;10.292;2022-08-21T02:58:04;101186.75;;;12.45
65316;BMP280;51920;53.952;10.292;2022-08-21T03:00:31;101193.69;;;12.43
65316;BMP280;51920;53.952;10.292;2022-08-21T03:02:58;101186.72;;;12.42
65316;BMP280;51920;53.952;10.292;2022-08-21T03:05:26;101187.50;;;12.39
65316;BMP280;51920;53.952;10.292;2022-08-21T03:07:52;101190.53;;;12.34
65316;BMP280;51920;53.952;10.292;2022-08-21T03:10:19;101179.66;;;12.30
65316;BMP280;51920;53.952;10.292;2022-08-21T03:12:48;101181.97;;;12.24
65316;BMP280;51920;53.952;10.292;2022-08-21T03:15:18;101180.34;;;12.20
65316;BMP280;51920;53.952;10.292;2022-08-21T03:17:45;101181.53;;;12.15
65316;BMP280;51920;53.952;10.292;2022-08-21T03:20:13;101176.50;;;12.17
65316;BMP280;51920;53.952;10.292;2022-08-21T03:22:40;101179.25;;;12.24
65316;BMP280;51920;53.952;10.292;2022-08-21T03:25:06;101171.06;;;12.17
65316;BMP280;51920;53.952;10.292;2022-08-21T03:27:34;101167.94;;;12.15
65316;BMP280;51920;53.952;10.292;2022-08-21T03:30:01;101180.34;;;12.16
65316;BMP280;51920;53.952;10.292;2022-08-21T03:32:26;101176.88;;;12.16
65316;BMP280;51920;53.952;10.292;2022-08-21T03:34:52;101180.31;;;12.09
65316;BMP280;51920;53.952;10.292;2022-08-21T03:37:17;101177.19;;;12.11
65316;BMP280;51920;53.952;10.292;2022-08-21T03:39:43;101175.69;;;12.20
65316;BMP280;51920;53.952;10.292;2022-08-21T03:42:10;101170.66;;;12.19
65316;BMP280;51920;53.952;10.292;2022-08-21T03:44:35;101174.88;;;12.09
65316;BMP280;51920;53.952;10.292;2022-08-21T03:47:01;101179.16;;;12.10
65316;BMP280;51920;53.952;10.292;2022-08-21T03:49:27;101172.13;;;12.06
65316;BMP280;51920;53.952;10.292;2022-08-21T03:51:53;101171.72;;;12.03
65316;BMP280;51920;53.952;10.292;2022-08-21T03:54:18;101172.47;;;12.00
65316;BMP280;51920;53.952;10.292;2022-08-21T03:56:44;101165.44;;;11.92
65316;BMP280;51920;53.952;10.292;2022-08-21T03:59:10;101172.44;;;11.97
65316;BMP280;51920;53.952;10.292;2022-08-21T04:01:36;101172.84;;;11.99
65316;BMP280;51920;53.952;10.292;2022-08-21T04:04:03;101178.69;;;12.01
65316;BMP280;51920;53.952;10.292;2022-08-21T04:06:28;101179.47;;;12.01
65316;BMP280;51920;53.952;10.292;2022-08-21T04:08:54;101173.25;;;12.01
65316;BMP280;51920;53.952;10.292;2022-08-21T04:11:20;101176.78;;;12.01
65316;BMP280;51920;53.952;10.292;2022-08-21T04:13:46;101171.69;;;12.00
65316;BMP280;51920;53.952;10.292;2022-08-21T04:16:12;101177.91;;;12.04
65316;BMP280;51920;53.952;10.292;2022-08-21T04:18:38;101180.63;;;12.04
65316;BMP280;51920;53.952;10.292;2022-08-21T04:21:04;101183.75;;;12.02
65316;BMP280;51920;53.952;10.292;2022-08-21T04:23:30;101172.06;;;11.95
65316;BMP280;51920;53.952;10.292;2022-08-21T04:25:57;101179.84;;;12.00
65316;BMP280;51920;53.952;10.292;2022-08-21T04:28:24;101186.41;;;11.99
65316;BMP280;51920;53.952;10.292;2022-08-21T04:30:51;101186.41;;;11.95
65316;BMP280;51920;53.952;10.292;2022-08-21T04:33:17;101179.06;;;11.99
65316;BMP280;51920;53.952;10.292;2022-08-21T04:35:43;101181.41;;;12.01
65316;BMP280;51920;53.952;10.292;2022-08-21T04:38:09;101189.53;;;12.01
65316;BMP280;51920;53.952;10.292;2022-08-21T04:40:35;101185.28;;;12.00
65316;BMP280;51920;53.952;10.292;2022-08-21T04:43:06;101193.75;;;11.91
65316;BMP280;51920;53.952;10.292;2022-08-21T04:45:34;101170.78;;;11.81
65316;BMP280;51920;53.952;10.292;2022-08-21T04:48:02;101193.03;;;11.98
65316;BMP280;51920;53.952;10.292;2022-08-21T04:50:47;101189.50;;;11.94
65316;BMP280;51920;53.952;10.292;2022-08-21T04:53:19;101190.66;;;11.93
65316;BMP280;51920;53.952;10.292;2022-08-21T04:55:46;101192.19;;;11.94
65316;BMP280;51920;53.952;10.292;2022-08-21T04:58:14;101198.50;;;12.01
65316;BMP280;51920;53.952;10.292;2022-08-21T05:00:41;101191.91;;;12.06
65316;BMP280;51920;53.952;10.292;2022-08-21T05:03:07;101193.13;;;12.12
65316;BMP280;51920;53.952;10.292;2022-08-21T05:05:34;101200.53;;;12.15
65316;BMP280;51920;53.952;10.292;2022-08-21T05:08:01;101193.94;;;12.20
65316;BMP280;51920;53.952;10.292;2022-08-21T05:10:28;101193.66;;;12.32
65316;BMP280;51920;53.952;10.292;2022-08-21T05:12:55;101205.78;;;12.45
65316;BMP280;51920;53.952;10.292;2022-08-21T05:15:21;101206.25;;;12.65
65316;BMP280;51920;53.952;10.292;2022-08-21T05:17:46;101194.66;;;12.76
65316;BMP280;51920;53.952;10.292;2022-08-21T05:20:13;101190.84;;;12.95
65316;BMP280;51920;53.952;10.292;2022-08-21T05:22:42;101203.31;;;13.10
65316;BMP280;51920;53.952;10.292;2022-08-21T05:25:09;101204.06;;;13.10
65316;BMP280;51920;53.952;10.292;2022-08-21T05:27:35;101207.63;;;13.22
65316;BMP280;51920;53.952;10.292;2022-08-21T05:30:01;101207.25;;;13.27
65316;BMP280;51920;53.952;10.292;2022-08-21T05:32:26;101208.78;;;13.35
65316;BMP280;51920;53.952;10.292;2022-08-21T05:34:53;101195.56;;;13.30
65316;BMP280;51920;53.952;10.292;2022-08-21T05:37:20;101201.44;;;13.39
65316;BMP280;51920;53.952;10.292;2022-08-21T05:39:46;101210.38;;;13.43
65316;BMP280;51920;53.952;10.292;2022-08-21T05:42:12;101208.81;;;13.49
65316;BMP280;51920;53.952;10.292;2022-08-21T05:44:37;101212.34;;;13.68
65316;BMP280;51920;53.952;10.292;2022-08-21T05:47:04;101208.03;;;13.95
65316;BMP280;51920;53.952;10.292;2022-08-21T05:49:30;101214.59;;;14.34
65316;BMP280;51920;53.952;10.292;2022-08-21T05:51:55;101212.59;;;14.67
65316;BMP280;51920;53.952;10.292;2022-08-21T05:54:21;101215.13;;;14.99
65316;BMP280;51920;53.952;10.292;2022-08-21T05:56:46;101213.81;;;15.21
65316;BMP280;51920;53.952;10.292;2022-08-21T05:59:12;101213.75;;;15.36
65316;BMP280;51920;53.952;10.292;2022-08-21T06:01:38;101211.91;;;15.67
65316;BMP280;51920;53.952;10.292;2022-08-21T06:04:04;101207.19;;;15.75
65316;BMP280;51920;53.952;10.292;2022-08-21T06:06:33;101207.03;;;15.89
65316;BMP280;51920;53.952;10.292;2022-08-21T06:09:00;101207.03;;;15.93
65316;BMP280;51920;53.952;10.292;2022-08-21T06:11:32;101216.72;;;15.97
65316;BMP280;51920;53.952;10.292;2022-08-21T06:13:58;101211.94;;;16.08
65316;BMP280;51920;53.952;10.292;2022-08-21T06:16:24;101199.00;;;16.12
65316;BMP280;51920;53.952;10.292;2022-08-21T06:18:50;101198.09;;;16.26
65316;BMP280;51920;53.952;10.292;2022-08-21T06:21:15;101197.19;;;16.33
65316;BMP280;51920;53.952;10.292;2022-08-21T06:23:41;101190.41;;;16.45
65316;BMP280;51920;53.952;10.292;2022-08-21T06:26:10;101186.00;;;16.54
65316;BMP280;51920;53.952;10.292;2022-08-21T06:28:39;101202.25;;;16.69
65316;BMP280;51920;53.952;10.292;2022-08-21T06:31:20;101207.97;;;16.78
65316;BMP280;51920;53.952;10.292;2022-08-21T06:33:46;101210.25;;;16.83
65316;BMP280;51920;53.952;10.292;2022-08-21T06:36:12;101213.94;;;16.96
65316;BMP280;51920;53.952;10.292;2022-08-21T06:38:38;101206.75;;;17.10
65316;BMP280;51920;53.952;10.292;2022-08-21T06:41:04;101210.94;;;17.65
65316;BMP280;51920;53.952;10.292;2022-08-21T06:43:29;101214.56;;;18.22
65316;BMP280;51920;53.952;10.292;2022-08-21T06:45:55;101203.63;;;18.58
65316;BMP280;51920;53.952;10.292;2022-08-21T06:48:20;101200.06;;;18.94
65316;BMP280;51920;53.952;10.292;2022-08-21T06:50:47;101212.16;;;19.29
65316;BMP280;51920;53.952;10.292;2022-08-21T06:53:15;101201.19;;;19.58
65316;BMP280;51920;53.952;10.292;2022-08-21T06:55:41;101206.38;;;19.69
65316;BMP280;51920;53.952;10.292;2022-08-21T06:58:07;101196.72;;;19.93
65316;BMP280;51920;53.952;10.292;2022-08-21T07:00:34;101198.06;;;20.02
65316;BMP280;51920;53.952;10.292;2022-08-21T07:03:00;101189.72;;;20.31
65316;BMP280;51920;53.952;10.292;2022-08-21T07:05:27;101194.13;;;20.54
65316;BMP280;51920;53.952;10.292;2022-08-21T07:07:53;101193.38;;;20.79
65316;BMP280;51920;53.952;10.292;2022-08-21T07:10:18;101199.59;;;21.05
65316;BMP280;51920;53.952;10.292;2022-08-21T07:12:47;101190.34;;;21.33
65316;BMP280;51920;53.952;10.292;2022-08-21T07:15:12;101194.28;;;21.45
65316;BMP280;51920;53.952;10.292;2022-08-21T07:17:38;101191.44;;;21.71
65316;BMP280;51920;53.952;10.292;2022-08-21T07:20:05;101190.19;;;21.72
65316;BMP280;51920;53.952;10.292;2022-08-21T07:22:31;101184.00;;;21.90
65316;BMP280;51920;53.952;10.292;2022-08-21T07:25:00;101187.53;;;22.12
65316;BMP280;51920;53.952;10.292;2022-08-21T07:27:26;101187.69;;;22.18
65316;BMP280;51920;53.952;10.292;2022-08-21T07:29:52;101188.84;;;22.39
65316;BMP280;51920;53.952;10.292;2022-08-21T07:32:17;101189.00;;;22.44
65316;BMP280;51920;53.952;10.292;2022-08-21T07:34:43;101184.63;;;22.65
65316;BMP280;51920;53.952;10.292;2022-08-21T07:37:09;101179.28;;;22.71
65316;BMP280;51920;53.952;10.292;2022-08-21T07:39:35;101182.38;;;22.82
65316;BMP280;51920;53.952;10.292;2022-08-21T07:42:01;101171.03;;;22.89
65316;BMP280;51920;53.952;10.292;2022-08-21T07:44:28;101166.72;;;22.98
65316;BMP280;51920;53.952;10.292;2022-08-21T07:46:54;101171.31;;;23.19
65316;BMP280;51920;53.952;10.292;2022-08-21T07:49:19;101179.00;;;23.42
65316;BMP280;51920;53.952;10.292;2022-08-21T07:51:45;101170.66;;;23.61
65316;BMP280;51920;53.952;10.292;2022-08-21T07:54:10;101178.47;;;23.72
65316;BMP280;51920;53.952;10.292;2022-08-21T07:56:36;101174.75;;;23.84
65316;BMP280;51920;53.952;10.292;2022-08-21T07:59:02;101168.50;;;23.65
65316;BMP280;51920;53.952;10.292;2022-08-21T08:01:29;101178.91;;;23.79
65316;BMP280;51920;53.952;10.292;2022-08-21T08:03:56;101171.06;;;24.11
65316;BMP280;51920;53.952;10.292;2022-08-21T08:06:21;101179.31;;;24.29
65316;BMP280;51920;53.952;10.292;2022-08-21T08:08:48;101175.84;;;24.44
65316;BMP280;51920;53.952;10.292;2022-08-21T08:11:14;101174.97;;;24.61
65316;BMP280;51920;53.952;10.292;2022-08-21T08:13:45;101169.31;;;24.56
65316;BMP280;51920;53.952;10.292;2022-08-21T08:16:11;101179.09;;;24.66
65316;BMP280;51920;53.952;10.292;2022-08-21T08:18:36;101168.88;;;24.72
65316;BMP280;51920;53.952;10.292;2022-08-21T08:21:03;101165.31;;;24.96
65316;BMP280;51920;53.952;10.292;2022-08-21T08:23:28;101158.31;;;24.85
65316;BMP280;51920;53.952;10.292;2022-08-21T08:25:55;101162.94;;;25.18
65316;BMP280;51920;53.952;10.292;2022-08-21T08:28:21;101158.84;;;25.28
65316;BMP280;51920;53.952;10.292;2022-08-21T08:30:48;101157.59;;;25.15
65316;BMP280;51920;53.952;10.292;2022-08-21T08:33:15;101167.78;;;25.47
65316;BMP280;51920;53.952;10.292;2022-08-21T08:35:44;101163.59;;;25.72
65316;BMP280;51920;53.952;10.292;2022-08-21T08:38:10;101155.69;;;25.50
65316;BMP280;51920;53.952;10.292;2022-08-21T08:40:57;101157.09;;;25.75
65316;BMP280;51920;53.952;10.292;2022-08-21T08:43:27;101150.28;;;25.76
65316;BMP280;51920;53.952;10.292;2022-08-21T08:45:54;101153.94;;;26.03
65316;BMP280;51920;53.952;10.292;2022-08-21T08:51:02;101152.94;;;26.21
65316;BMP280;51920;53.952;10.292;2022-08-21T08:53:33;101149.41;;;26.20
65316;BMP280;51920;53.952;10.292;2022-08-21T08:56:01;101153.78;;;26.47
65316;BMP280;51920;53.952;10.292;2022-08-21T08:58:39;101146.91;;;26.02
65316;BMP280;51920;53.952;10.292;2022-08-21T09:01:18;101147.47;;;26.47
65316;BMP280;51920;53.952;10.292;2022-08-21T09:03:46;101149.81;;;26.74
65316;BMP280;51920;53.952;10.292;2022-08-21T09:09:15;101149.97;;;26.45
65316;BMP280;51920;53.952;10.292;2022-08-21T09:12:02;101154.16;;;27.07
65316;BMP280;51920;53.952;10.292;2022-08-21T09:14:37;101147.88;;;27.44
65316;BMP280;51920;53.952;10.292;2022-08-21T09:17:33;101153.13;;;27.30
65316;BMP280;51920;53.952;10.292;2022-08-21T09:20:29;101143.03;;;27.33
65316;BMP280;51920;53.952;10.292;2022-08-21T09:25:59;101149.72;;;27.90
65316;BMP280;51920;53.952;10.292;2022-08-21T09:28:31;101142.41;;;27.98
65316;BMP280;51920;53.952;10.292;2022-08-21T09:31:31;101144.69;;;27.94
65316;BMP280;51920;53.952;10.292;2022-08-21T09:34:09;101136.94;;;28.20
65316;BMP280;51920;53.952;10.292;2022-08-21T09:36:45;101132.69;;;28.42
65316;BMP280;51920;53.952;10.292;2022-08-21T09:39:23;101132.19;;;28.38
65316;BMP280;51920;53.952;10.292;2022-08-21T09:41:56;101133.28;;;28.68
65316;BMP280;51920;53.952;10.292;2022-08-21T09:44:29;101132.03;;;27.98
65316;BMP280;51920;53.952;10.292;2022-08-21T09:46:55;101134.00;;;28.41
65316;BMP280;51920;53.952;10.292;2022-08-21T09:49:32;101121.44;;;28.08
65316;BMP280;51920;53.952;10.292;2022-08-21T09:51:58;101117.75;;;28.39
65316;BMP280;51920;53.952;10.292;2022-08-21T09:54:34;101113.50;;;28.66
65316;BMP280;51920;53.952;10.292;2022-08-21T09:57:12;101119.59;;;28.93
65316;BMP280;51920;53.952;10.292;2022-08-21T10:00:08;101118.09;;;28.92
65316;BMP280;51920;53.952;10.292;2022-08-21T10:02:35;101111.72;;;29.19
65316;BMP280;51920;53.952;10.292;2022-08-21T10:05:07;101113.19;;;28.31
65316;BMP280;51920;53.952;10.292;2022-08-21T10:07:37;101107.97;;;28.01
65316;BMP280;51920;53.952;10.292;2022-08-21T10:10:27;101113.53;;;27.90
65316;BMP280;51920;53.952;10.292;2022-08-21T10:13:04;101110.22;;;27.11
65316;BMP280;51920;53.952;10.292;2022-08-21T10:21:04;101113.34;;;25.85
65316;BMP280;51920;53.952;10.292;2022-08-21T10:26:24;101107.03;;;26.05
65316;BMP280;51920;53.952;10.292;2022-08-21T10:34:13;101109.03;;;25.84
65316;BMP280;51920;53.952;10.292;2022-08-21T10:39:26;101107.94;;;25.61
65316;BMP280;51920;53.952;10.292;2022-08-21T10:44:37;101101.53;;;25.55
65316;BMP280;51920;53.952;10.292;2022-08-21T10:47:10;101108.16;;;26.13
65316;BMP280;51920;53.952;10.292;2022-08-21T10:49:52;101113.50;;;26.17
65316;BMP280;51920;53.952;10.292;2022-08-21T10:53:45;101117.97;;;26.75
65316;BMP280;51920;53.952;10.292;2022-08-21T10:58:43;101102.78;;;27.34
65316;BMP280;51920;53.952;10.292;2022-08-21T11:01:27;101110.25;;;26.85
65316;BMP280;51920;53.952;10.292;2022-08-21T11:04:10;101114.28;;;27.16
65316;BMP280;51920;53.952;10.292;2022-08-21T11:06:41;101108.75;;;27.21
65316;BMP280;51920;53.952;10.292;2022-08-21T11:09:14;101116.00;;;27.45
65316;BMP280;51920;53.952;10.292;2022-08-21T11:11:56;101108.66;;;27.36
65316;BMP280;51920;53.952;10.292;2022-08-21T11:14:39;101110.91;;;27.38
65316;BMP280;51920;53.952;10.292;2022-08-21T11:17:12;101104.31;;;27.35
65316;BMP280;51920;53.952;10.292;2022-08-21T11:19:52;101104.88;;;27.45
65316;BMP280;51920;53.952;10.292;2022-08-21T11:22:25;101108.34;;;27.34
65316;BMP280;51920;53.952;10.292;2022-08-21T11:25:06;101117.41;;;27.29
65316;BMP280;51920;53.952;10.292;2022-08-21T11:27:41;101112.72;;;26.57
65316;BMP280;51920;53.952;10.292;2022-08-21T11:30:08;101116.06;;;26.41
65316;BMP280;51920;53.952;10.292;2022-08-21T11:43:32;101123.47;;;26.96
65316;BMP280;51920;53.952;10.292;2022-08-21T11:46:11;101113.94;;;26.76
65316;BMP280;51920;53.952;10.292;2022-08-21T11:51:19;101125.31;;;26.52
65316;BMP280;51920;53.952;10.292;2022-08-21T11:53:50;101131.81;;;26.70
65316;BMP280;51920;53.952;10.292;2022-08-21T11:56:24;101118.88;;;26.93
65316;BMP280;51920;53.952;10.292;2022-08-21T11:58:55;101117.97;;;26.75
65316;BMP280;51920;53.952;10.292;2022-08-21T12:01:25;101109.91;;;26.51
65316;BMP280;51920;53.952;10.292;2022-08-21T12:04:00;101116.88;;;26.93
65316;BMP280;51920;53.952;10.292;2022-08-21T12:06:33;101110.22;;;27.11
65316;BMP280;51920;53.952;10.292;2022-08-21T12:09:04;101108.13;;;27.06
65316;BMP280;51920;53.952;10.292;2022-08-21T12:11:30;101110.44;;;26.35
65316;BMP280;51920;53.952;10.292;2022-08-21T12:16:39;101111.09;;;26.04
65316;BMP280;51920;53.952;10.292;2022-08-21T12:19:09;101116.63;;;26.04
65316;BMP280;51920;53.952;10.292;2022-08-21T12:26:52;101119.25;;;26.13
65316;BMP280;51920;53.952;10.292;2022-08-21T12:31:59;101116.31;;;25.81
65316;BMP280;51920;53.952;10.292;2022-08-21T12:34:44;101103.78;;;25.21
65316;BMP280;51920;53.952;10.292;2022-08-21T12:37:39;101109.91;;;25.10
65316;BMP280;51920;53.952;10.292;2022-08-21T12:40:19;101108.44;;;24.85
65316;BMP280;51920;53.952;10.292;2022-08-21T12:42:50;101120.53;;;25.12
65316;BMP280;51920;53.952;10.292;2022-08-21T12:45:27;101119.66;;;25.21
65316;BMP280;51920;53.952;10.292;2022-08-21T12:48:00;101116.00;;;25.29
65316;BMP280;51920;53.952;10.292;2022-08-21T12:50:37;101107.06;;;25.55
65316;BMP280;51920;53.952;10.292;2022-08-21T12:55:42;101114.38;;;25.88
65316;BMP280;51920;53.952;10.292;2022-08-21T12:58:22;101108.50;;;26.00
65316;BMP280;51920;53.952;10.292;2022-08-21T13:01:24;101108.31;;;26.04
65316;BMP280;51920;53.952;10.292;2022-08-21T13:03:52;101108.66;;;26.12
65316;BMP280;51920;53.952;10.292;2022-08-21T13:06:20;101108.31;;;26.04
65316;BMP280;51920;53.952;10.292;2022-08-21T13:08:47;101118.47;;;25.57
65316;BMP280;51920;53.952;10.292;2022-08-21T13:11:16;101097.00;;;25.37
65316;BMP280;51920;53.952;10.292;2022-08-21T13:13:43;101111.59;;;25.08
65316;BMP280;51920;53.952;10.292;2022-08-21T13:16:08;101111.44;;;25.26
65316;BMP280;51920;53.952;10.292;2022-08-21T13:18:38;101107.00;;;25.49
65316;BMP280;51920;53.952;10.292;2022-08-21T13:21:11;101110.03;;;25.66
65316;BMP280;51920;53.952;10.292;2022-08-21T13:23:38;101110.22;;;25.77
65316;BMP280;51920;53.952;10.292;2022-08-21T13:26:20;101102.56;;;25.72
65316;BMP280;51920;53.952;10.292;2022-08-21T13:28:47;101093.56;;;25.63
65316;BMP280;51920;53.952;10.292;2022-08-21T13:31:19;101093.00;;;25.58
65316;BMP280;51920;53.952;10.292;2022-08-21T13:33:48;101079.84;;;25.39
65316;BMP280;51920;53.952;10.292;2022-08-21T13:36:21;101089.22;;;25.56
65316;BMP280;51920;53.952;10.292;2022-08-21T13:38:51;101098.13;;;25.80
65316;BMP280;51920;53.952;10.292;2022-08-21T13:41:27;101094.56;;;25.59
65316;BMP280;51920;53.952;10.292;2022-08-21T13:44:03;101091.69;;;25.54
65316;BMP280;51920;53.952;10.292;2022-08-21T13:46:32;101088.22;;;25.59
65316;BMP280;51920;53.952;10.292;2022-08-21T13:49:00;101087.13;;;25.51
65316;BMP280;51920;53.952;10.292;2022-08-21T13:51:28;101091.69;;;25.54
65316;BMP280;51920;53.952;10.292;2022-08-21T13:53:54;101091.84;;;25.30
65316;BMP280;51920;53.952;10.292;2022-08-21T13:56:25;101092.88;;;25.18
65316;BMP280;51920;53.952;10.292;2022-08-21T13:58:53;101093.38;;;25.01
65316;BMP280;51920;53.952;10.292;2022-08-21T14:01:35;101096.41;;;24.89
65316;BMP280;51920;53.952;10.292;2022-08-21T14:04:33;101098.97;;;24.92
65316;BMP280;51920;53.952;10.292;2022-08-21T14:07:00;101087.44;;;25.08
65316;BMP280;51920;53.952;10.292;2022-08-21T14:09:33;101099.47;;;25.05
65316;BMP280;51920;53.952;10.292;2022-08-21T14:12:01;101099.47;;;25.20
65316;BMP280;51920;53.952;10.292;2022-08-21T14:14:33;101100.69;;;24.90
65316;BMP280;51920;53.952;10.292;2022-08-21T14:17:01;101095.81;;;24.84
65316;BMP280;51920;53.952;10.292;2022-08-21T14:19:36;101095.63;;;24.88
65316;BMP280;51920;53.952;10.292;2022-08-21T14:22:43;101093.44;;;24.77
65316;BMP280;51920;53.952;10.292;2022-08-21T14:25:26;101089.97;;;24.82
65316;BMP280;51920;53.952;10.292;2022-08-21T14:27:57;101093.44;;;24.77
65316;BMP280;51920;53.952;10.292;2022-08-21T14:32:52;101093.63;;;24.89
65316;BMP280;51920;53.952;10.292;2022-08-21T14:35:19;101100.44;;;25.02
65316;BMP280;51920;53.952;10.292;2022-08-21T14:37:47;101092.50;;;24.95
65316;BMP280;51920;53.952;10.292;2022-08-21T14:40:12;101102.81;;;24.95
65316;BMP280;51920;53.952;10.292;2022-08-21T14:42:40;101101.00;;;24.92
65316;BMP280;51920;53.952;10.292;2022-08-21T14:45:14;101104.66;;;24.98
65316;BMP280;51920;53.952;10.292;2022-08-21T14:47:40;101105.28;;;25.07
65316;BMP280;51920;53.952;10.292;2022-08-21T14:50:06;101095.34;;;25.01
65316;BMP280;51920;53.952;10.292;2022-08-21T14:52:31;101095.34;;;25.01
65316;BMP280;51920;53.952;10.292;2022-08-21T14:54:58;101094.00;;;24.96
65316;BMP280;51920;53.952;10.292;2022-08-21T14:57:24;101091.06;;;25.00
65316;BMP280;51920;53.952;10.292;2022-08-21T14:59:51;101099.28;;;25.09